createdAt,value
2023-02-28T00:00:33.036Z,103264.09
2023-02-28T00:02:34.497Z,103266.63
2023-02-28T00:04:35.978Z,103270.97
2023-02-28T00:06:37.532Z,103256.19
2023-02-28T00:08:39.522Z,103260.53
2023-02-28T00:10:41.016Z,103270.00
2023-02-28T00:12:42.776Z,103257.78
2023-02-28T00:14:44.237Z,103263.84
2023-02-28T00:16:45.836Z,103273.38
2023-02-28T00:18:48.644Z,103269.88
2023-02-28T00:20:50.174Z,103272.50
2023-02-28T00:22:53.463Z,103262.94
2023-02-28T00:24:54.937Z,103272.44
2023-02-28T00:26:56.398Z,103277.66
2023-02-28T00:28:57.885Z,103271.44
2023-02-28T00:31:01.058Z,103273.16
2023-02-28T00:33:02.621Z,103274.00
2023-02-28T00:35:05.321Z,103275.63
2023-02-28T00:37:08.310Z,103273.94
2023-02-28T00:39:09.837Z,103270.44
2023-02-28T00:41:11.598Z,103268.66
2023-02-28T00:43:13.173Z,103272.16
2023-02-28T00:45:14.628Z,103263.41
2023-02-28T00:47:16.177Z,103267.75
2023-02-28T00:49:17.868Z,103273.84
2023-02-28T00:51:19.317Z,103265.97
2023-02-28T00:53:21.237Z,103274.69
2023-02-28T00:55:22.780Z,103268.56
2023-02-28T00:57:24.294Z,103275.50
2023-02-28T00:59:25.935Z,103279.91
2023-02-28T01:01:27.835Z,103283.41
2023-02-28T01:03:29.618Z,103278.13
2023-02-28T01:05:31.128Z,103273.72
2023-02-28T01:07:32.572Z,103271.94
2023-02-28T01:09:34.095Z,103272.84
2023-02-28T01:11:36.411Z,103273.72
2023-02-28T01:13:38.496Z,103271.94
2023-02-28T01:15:47.098Z,103271.06
2023-02-28T01:17:48.631Z,103273.59
2023-02-28T01:19:50.160Z,103272.72
2023-02-28T01:21:51.627Z,103272.72
2023-02-28T01:23:53.096Z,103275.31
2023-02-28T01:25:54.568Z,103276.09
2023-02-28T01:27:56.159Z,103276.16
2023-02-28T01:29:57.618Z,103274.38
2023-02-28T01:32:00.553Z,103284.81
2023-02-28T01:34:02.382Z,103290.03
2023-02-28T01:36:07.113Z,103283.03
2023-02-28T01:38:21.308Z,103284.75
2023-02-28T01:40:23.848Z,103281.19
2023-02-28T01:42:25.336Z,103280.28
2023-02-28T01:44:54.817Z,103283.78
2023-02-28T01:46:56.369Z,103282.91
2023-02-28T01:49:05.252Z,103285.50
2023-02-28T01:51:09.761Z,103286.34
2023-02-28T01:53:18.810Z,103288.88
2023-02-28T01:55:22.386Z,103274.06
2023-02-28T01:57:30.668Z,103281.88
2023-02-28T01:59:47.442Z,103280.91
2023-02-28T02:01:49.764Z,103287.84
2023-02-28T02:03:57.372Z,103280.91
2023-02-28T02:05:58.853Z,103285.25
2023-02-28T02:08:06.419Z,103287.84
2023-02-28T02:10:17.198Z,103272.13
2023-02-28T02:12:39.641Z,103277.34
2023-02-28T02:14:53.206Z,103279.97
2023-02-28T02:17:29.220Z,103272.06
2023-02-28T02:19:39.909Z,103274.63
2023-02-28T02:21:56.069Z,103271.94
2023-02-28T02:24:25.748Z,103268.44
2023-02-28T02:26:49.038Z,103279.72
2023-02-28T02:29:27.243Z,103267.44
2023-02-28T02:32:04.835Z,103274.34
2023-02-28T02:34:35.644Z,103268.19
2023-02-28T02:36:50.181Z,103260.16
2023-02-28T02:38:58.767Z,103268.59
2023-02-28T02:41:12.401Z,103267.69
2023-02-28T02:43:27.477Z,103265.09
2023-02-28T02:45:45.887Z,103265.97
2023-02-28T02:47:49.138Z,103266.81
2023-02-28T02:49:53.647Z,103273.81
2023-02-28T02:51:59.250Z,103271.19
2023-02-28T02:54:09.946Z,103272.91
2023-02-28T02:56:13.191Z,103273.72
2023-02-28T02:58:20.142Z,103269.41
2023-02-28T03:00:27.485Z,103272.84
2023-02-28T03:02:35.144Z,103265.91
2023-02-28T03:04:44.464Z,103271.06
2023-02-28T03:06:45.957Z,103271.88
2023-02-28T03:08:47.426Z,103270.94
2023-02-28T03:10:57.052Z,103267.44
2023-02-28T03:13:35.475Z,103271.75
2023-02-28T03:16:00.498Z,103267.38
2023-02-28T03:18:09.489Z,103267.38
2023-02-28T03:20:28.963Z,103267.28
2023-02-28T03:22:43.357Z,103269.97
2023-02-28T03:24:49.352Z,103275.06
2023-02-28T03:27:02.541Z,103278.47
2023-02-28T03:29:28.920Z,103271.41
2023-02-28T03:31:36.161Z,103270.19
2023-02-28T03:33:43.513Z,103273.63
2023-02-28T03:35:52.533Z,103266.63
2023-02-28T03:38:05.880Z,103267.53
2023-02-28T03:40:13.709Z,103275.34
2023-02-28T03:42:19.760Z,103279.66
2023-02-28T03:44:30.290Z,103275.28
2023-02-28T03:46:37.247Z,103273.50
2023-02-28T03:48:45.490Z,103278.63
2023-02-28T03:50:50.266Z,103277.69
2023-02-28T03:53:02.124Z,103284.66
2023-02-28T03:55:10.710Z,103282.88
2023-02-28T03:57:38.408Z,103281.47
2023-02-28T03:59:50.838Z,103275.22
2023-02-28T04:01:52.685Z,103280.09
2023-02-28T04:03:54.536Z,103281.06
2023-02-28T04:05:58.273Z,103278.59
2023-02-28T04:08:09.500Z,103281.41
2023-02-28T04:10:12.756Z,103277.00
2023-02-28T04:12:14.217Z,103286.53
2023-02-28T04:14:16.039Z,103289.97
2023-02-28T04:16:33.522Z,103286.41
2023-02-28T04:18:35.752Z,103298.47
2023-02-28T04:20:37.443Z,103295.03
2023-02-28T04:22:38.892Z,103299.34
2023-02-28T04:24:42.456Z,103294.16
2023-02-28T04:26:49.512Z,103301.06
2023-02-28T04:28:50.970Z,103301.06
2023-02-28T04:30:57.708Z,103294.06
2023-02-28T04:33:01.076Z,103294.00
2023-02-28T04:35:03.603Z,103300.94
2023-02-28T04:37:13.164Z,103298.19
2023-02-28T04:39:16.796Z,103295.50
2023-02-28T04:41:18.714Z,103294.47
2023-02-28T04:43:20.175Z,103301.22
2023-02-28T04:45:21.768Z,103302.94
2023-02-28T04:47:23.300Z,103308.94
2023-02-28T04:49:24.859Z,103306.22
2023-02-28T04:51:26.364Z,103298.31
2023-02-28T04:53:29.408Z,103298.25
2023-02-28T04:55:30.869Z,103291.13
2023-02-28T04:57:32.314Z,103292.75
2023-02-28T04:59:34.008Z,103289.03
2023-02-28T05:01:35.899Z,103299.38
2023-02-28T05:03:37.350Z,103307.13
2023-02-28T05:05:38.791Z,103298.34
2023-02-28T05:07:40.250Z,103296.56
2023-02-28T05:09:41.697Z,103297.38
2023-02-28T05:11:43.340Z,103295.53
2023-02-28T05:13:44.892Z,103298.78
2023-02-28T05:15:46.359Z,103300.34
2023-02-28T05:17:47.880Z,103303.78
2023-02-28T05:19:49.316Z,103295.00
2023-02-28T05:21:54.492Z,103295.00
2023-02-28T05:23:57.747Z,103299.25
2023-02-28T05:25:59.471Z,103299.94
2023-02-28T05:28:00.987Z,103306.78
2023-02-28T05:30:04.488Z,103312.75
2023-02-28T05:32:06.061Z,103304.84
2023-02-28T05:34:07.596Z,103301.13
2023-02-28T05:36:09.392Z,103302.69
2023-02-28T05:38:10.867Z,103293.69
2023-02-28T05:40:12.749Z,103307.44
2023-02-28T05:42:14.242Z,103299.41
2023-02-28T05:44:16.568Z,103306.16
2023-02-28T05:46:18.277Z,103294.56
2023-02-28T05:48:19.779Z,103307.31
2023-02-28T05:50:21.361Z,103315.75
2023-02-28T05:52:23.002Z,103315.53
2023-02-28T05:54:24.448Z,103323.03
2023-02-28T05:56:26.354Z,103315.81
2023-02-28T05:58:31.528Z,103312.00
2023-02-28T06:00:33.050Z,103316.13
2023-02-28T06:02:34.597Z,103318.50
2023-02-28T06:04:36.086Z,103320.84
2023-02-28T06:06:38.044Z,103324.06
2023-02-28T06:08:39.494Z,103323.84
2023-02-28T06:10:40.971Z,103330.56
2023-02-28T06:12:42.997Z,103334.63
2023-02-28T06:14:44.604Z,103340.47
2023-02-28T06:16:46.414Z,103339.34
2023-02-28T06:18:47.934Z,103340.88
2023-02-28T06:20:56.310Z,103344.22
2023-02-28T06:23:01.530Z,103343.97
2023-02-28T06:25:04.291Z,103345.56
2023-02-28T06:27:06.553Z,103343.72
2023-02-28T06:29:08.501Z,103340.94
2023-02-28T06:31:12.286Z,103346.06
2023-02-28T06:33:13.773Z,103345.16
2023-02-28T06:35:15.320Z,103348.53
2023-02-28T06:37:17.494Z,103349.34
2023-02-28T06:39:19.372Z,103343.09
2023-02-28T06:41:22.144Z,103350.78
2023-02-28T06:43:24.383Z,103349.91
2023-02-28T06:45:27.124Z,103352.50
2023-02-28T06:47:28.565Z,103358.59
2023-02-28T06:49:31.723Z,103354.28
2023-02-28T06:51:33.179Z,103358.66
2023-02-28T06:53:35.068Z,103349.19
2023-02-28T06:55:39.140Z,103356.16
2023-02-28T06:57:40.663Z,103361.34
2023-02-28T06:59:42.123Z,103351.84
2023-02-28T07:01:43.728Z,103354.44
2023-02-28T07:03:45.277Z,103354.53
2023-02-28T07:05:46.754Z,103352.75
2023-02-28T07:07:48.263Z,103366.72
2023-02-28T07:09:49.755Z,103366.72
2023-02-28T07:11:51.243Z,103366.72
2023-02-28T07:13:54.281Z,103367.53
2023-02-28T07:15:57.787Z,103372.63
2023-02-28T07:17:59.378Z,103374.41
2023-02-28T07:20:00.841Z,103384.13
2023-02-28T07:22:03.757Z,103372.91
2023-02-28T07:24:05.513Z,103374.78
2023-02-28T07:26:07.688Z,103381.84
2023-02-28T07:28:09.186Z,103376.81
2023-02-28T07:30:11.341Z,103375.28
2023-02-28T07:32:12.830Z,103374.56
2023-02-28T07:34:15.005Z,103376.44
2023-02-28T07:36:19.773Z,103380.09
2023-02-28T07:38:21.304Z,103381.06
2023-02-28T07:40:22.875Z,103378.63
2023-02-28T07:42:24.333Z,103386.59
2023-02-28T07:44:25.897Z,103388.47
2023-02-28T07:46:30.439Z,103386.13
2023-02-28T07:48:32.625Z,103385.38
2023-02-28T07:50:35.483Z,103381.25
2023-02-28T07:52:40.572Z,103382.41
2023-02-28T07:54:42.049Z,103391.28
2023-02-28T07:56:43.517Z,103381.84
2023-02-28T07:58:44.984Z,103384.69
2023-02-28T08:00:46.471Z,103379.75
2023-02-28T08:02:47.981Z,103389.56
2023-02-28T08:04:50.334Z,103389.81
2023-02-28T08:06:53.985Z,103387.44
2023-02-28T08:08:57.082Z,103385.16
2023-02-28T08:11:03.217Z,103390.72
2023-02-28T08:13:04.784Z,103386.66
2023-02-28T08:15:06.932Z,103384.44
2023-02-28T08:17:08.423Z,103392.47
2023-02-28T08:19:10.091Z,103389.28
2023-02-28T08:21:11.971Z,103395.69
2023-02-28T08:23:13.507Z,103389.09
2023-02-28T08:25:15.071Z,103392.19
2023-02-28T08:27:16.556Z,103390.03
2023-02-28T08:29:18.061Z,103395.56
2023-02-28T08:31:19.953Z,103392.34
2023-02-28T08:33:21.616Z,103395.25
2023-02-28T08:35:23.625Z,103396.38
2023-02-28T08:37:25.495Z,103392.28
2023-02-28T08:39:27.051Z,103391.78
2023-02-28T08:41:29.051Z,103388.81
2023-02-28T08:43:30.776Z,103387.69
2023-02-28T08:45:32.317Z,103390.03
2023-02-28T08:47:33.841Z,103392.28
2023-02-28T08:49:35.393Z,103391.75
2023-02-28T08:51:36.875Z,103395.66
2023-02-28T08:53:40.212Z,103391.00
2023-02-28T08:55:41.682Z,103387.19
2023-02-28T08:57:43.153Z,103384.94
2023-02-28T08:59:44.678Z,103395.56
2023-02-28T09:01:46.252Z,103390.47
2023-02-28T09:03:50.543Z,103387.19
2023-02-28T09:05:54.880Z,103394.59
2023-02-28T09:07:56.417Z,103391.66
2023-02-28T09:09:58.827Z,103396.31
2023-02-28T09:12:00.393Z,103393.13
2023-02-28T09:14:04.256Z,103392.50
2023-02-28T09:16:09.951Z,103391.03
2023-02-28T09:18:11.831Z,103393.06
2023-02-28T09:20:13.504Z,103391.34
2023-02-28T09:22:14.953Z,103388.03
2023-02-28T09:24:16.478Z,103394.22
2023-02-28T09:26:21.169Z,103398.84
2023-02-28T09:28:23.723Z,103388.41
2023-02-28T09:30:25.369Z,103391.06
2023-02-28T09:32:27.070Z,103391.91
2023-02-28T09:34:31.922Z,103386.78
2023-02-28T09:36:43.796Z,103383.53
2023-02-28T09:38:48.782Z,103383.84
2023-02-28T09:41:00.453Z,103375.31
2023-02-28T09:43:01.924Z,103386.59
2023-02-28T09:45:14.321Z,103388.38
2023-02-28T09:47:20.986Z,103392.88
2023-02-28T09:49:26.642Z,103389.56
2023-02-28T09:51:33.497Z,103388.81
2023-02-28T09:53:40.458Z,103399.50
2023-02-28T09:55:52.395Z,103400.59
2023-02-28T09:57:55.477Z,103405.25
2023-02-28T10:00:20.242Z,103399.38
2023-02-28T10:02:39.389Z,103403.22
2023-02-28T10:04:56.292Z,103397.88
2023-02-28T10:06:58.825Z,103399.38
2023-02-28T10:09:03.005Z,103398.41
2023-02-28T10:11:08.616Z,103403.94
2023-02-28T10:13:25.902Z,103399.66
2023-02-28T10:15:32.096Z,103402.09
2023-02-28T10:17:54.764Z,103392.66
2023-02-28T10:20:12.494Z,103411.38
2023-02-28T10:22:30.106Z,103404.78
2023-02-28T10:24:39.944Z,103407.75
2023-02-28T10:26:46.152Z,103409.88
2023-02-28T10:28:47.849Z,103407.56
2023-02-28T10:30:54.246Z,103412.41
2023-02-28T10:32:56.310Z,103411.94
2023-02-28T10:35:18.560Z,103415.59
2023-02-28T10:37:20.803Z,103414.88
2023-02-28T10:39:45.110Z,103416.16
2023-02-28T10:41:46.600Z,103405.88
2023-02-28T10:43:48.179Z,103404.28
2023-02-28T10:46:00.587Z,103412.44
2023-02-28T10:48:05.991Z,103403.09
2023-02-28T10:50:44.348Z,103407.72
2023-02-28T10:52:45.852Z,103395.59
2023-02-28T10:54:47.313Z,103405.56
2023-02-28T10:57:20.529Z,103397.34
2023-02-28T10:59:29.466Z,103396.16
2023-02-28T11:01:31.256Z,103388.78
2023-02-28T11:03:36.049Z,103390.84
2023-02-28T11:05:37.652Z,103397.25
2023-02-28T11:07:52.979Z,103398.69
2023-02-28T11:09:57.778Z,103388.56
2023-02-28T11:11:59.873Z,103392.50
2023-02-28T11:14:06.949Z,103389.84
2023-02-28T11:16:12.580Z,103380.66
2023-02-28T11:18:14.025Z,103385.59
2023-02-28T11:20:22.558Z,103388.31
2023-02-28T11:22:30.754Z,103388.59
2023-02-28T11:24:36.654Z,103381.94
2023-02-28T11:26:57.767Z,103376.03
2023-02-28T11:29:13.153Z,103374.81
2023-02-28T11:31:17.712Z,103377.72
2023-02-28T11:33:25.176Z,103375.22
2023-02-28T11:35:35.675Z,103373.59
2023-02-28T11:37:39.051Z,103370.81
2023-02-28T11:39:40.709Z,103372.38
2023-02-28T11:42:02.712Z,103368.84
2023-02-28T11:44:29.288Z,103364.75
2023-02-28T11:47:01.749Z,103366.69
2023-02-28T11:49:18.481Z,103363.28
2023-02-28T11:51:29.573Z,103357.91
2023-02-28T11:53:57.043Z,103363.25
2023-02-28T11:56:12.358Z,103364.16
2023-02-28T11:58:48.334Z,103361.38
2023-02-28T12:00:55.357Z,103349.66
2023-02-28T12:03:19.106Z,103343.06
2023-02-28T12:05:44.797Z,103351.38
2023-02-28T12:07:59.555Z,103346.28
2023-02-28T12:10:23.743Z,103345.97
2023-02-28T12:12:35.356Z,103333.16
2023-02-28T12:15:03.953Z,103336.09
2023-02-28T12:17:20.506Z,103336.47
2023-02-28T12:19:29.195Z,103322.13
2023-02-28T12:21:30.823Z,103323.47
2023-02-28T12:23:35.169Z,103323.22
2023-02-28T12:25:49.187Z,103322.22
2023-02-28T12:27:54.113Z,103314.03
2023-02-28T12:30:01.902Z,103315.28
2023-02-28T12:32:09.396Z,103312.16
2023-02-28T12:34:16.647Z,103302.19
2023-02-28T12:36:23.105Z,103302.09
2023-02-28T12:38:35.506Z,103297.47
2023-02-28T12:40:50.039Z,103297.34
2023-02-28T12:43:01.682Z,103288.94
2023-02-28T12:45:11.307Z,103287.78
2023-02-28T12:47:19.580Z,103286.84
2023-02-28T12:49:32.747Z,103285.50
2023-02-28T12:51:37.252Z,103283.47
2023-02-28T12:53:50.914Z,103281.16
2023-02-28T12:56:16.574Z,103272.69
2023-02-28T12:58:30.904Z,103270.78
2023-02-28T13:00:41.383Z,103275.47
2023-02-28T13:03:07.753Z,103278.06
2023-02-28T13:05:27.607Z,103272.72
2023-02-28T13:07:47.657Z,103274.56
2023-02-28T13:09:58.778Z,103269.44
2023-02-28T13:12:00.566Z,103257.16
2023-02-28T13:14:14.857Z,103275.81
2023-02-28T13:16:16.533Z,103267.06
2023-02-28T13:18:42.744Z,103260.78
2023-02-28T13:20:49.230Z,103249.44
2023-02-28T13:22:54.199Z,103258.31
2023-02-28T13:24:57.433Z,103256.53
2023-02-28T13:27:02.031Z,103256.56
2023-02-28T13:29:16.837Z,103261.91
2023-02-28T13:31:19.604Z,103255.72
2023-02-28T13:33:21.050Z,103247.78
2023-02-28T13:35:44.067Z,103248.69
2023-02-28T13:37:50.809Z,103245.13
2023-02-28T13:39:57.487Z,103244.13
2023-02-28T13:42:35.311Z,103244.00
2023-02-28T13:45:02.888Z,103239.84
2023-02-28T13:47:04.338Z,103244.44
2023-02-28T13:49:21.230Z,103242.06
2023-02-28T13:51:45.096Z,103242.06
2023-02-28T13:54:03.608Z,103245.53
2023-02-28T13:56:21.679Z,103237.59
2023-02-28T13:58:50.248Z,103242.91
2023-02-28T14:01:04.040Z,103227.03
2023-02-28T14:03:39.062Z,103225.31
2023-02-28T14:05:40.883Z,103228.84
2023-02-28T14:07:48.201Z,103227.09
2023-02-28T14:09:58.496Z,103227.94
2023-02-28T14:12:38.708Z,103229.72
2023-02-28T14:14:40.099Z,103223.56
2023-02-28T14:16:50.633Z,103226.19
2023-02-28T14:19:01.487Z,103225.28
2023-02-28T14:21:12.105Z,103225.28
2023-02-28T14:23:51.352Z,103229.63
2023-02-28T14:26:15.985Z,103227.81
2023-02-28T14:28:55.051Z,103229.47
2023-02-28T14:31:01.869Z,103231.22
2023-02-28T14:33:34.722Z,103229.44
2023-02-28T14:36:03.720Z,103233.91
2023-02-28T14:38:22.344Z,103233.06
2023-02-28T14:40:28.861Z,103235.69
2023-02-28T14:42:38.976Z,103228.59
2023-02-28T14:44:40.510Z,103227.69
2023-02-28T14:46:44.006Z,103230.22
2023-02-28T14:48:50.750Z,103223.09
2023-02-28T14:50:54.931Z,103223.09
2023-02-28T14:52:56.751Z,103222.16
2023-02-28T14:55:01.240Z,103219.41
2023-02-28T14:57:03.243Z,103227.22
2023-02-28T14:59:06.326Z,103227.13
2023-02-28T15:01:12.137Z,103229.63
2023-02-28T15:03:35.003Z,103229.56
2023-02-28T15:05:36.517Z,103222.41
2023-02-28T15:07:38.316Z,103227.72
2023-02-28T15:09:39.898Z,103229.56
2023-02-28T15:11:41.865Z,103229.59
2023-02-28T15:13:47.467Z,103234.06
2023-02-28T15:16:02.994Z,103234.13
2023-02-28T15:18:07.227Z,103237.69
2023-02-28T15:20:13.760Z,103237.63
2023-02-28T15:22:20.553Z,103228.78
2023-02-28T15:24:25.587Z,103232.16
2023-02-28T15:26:33.583Z,103225.88
2023-02-28T15:28:35.118Z,103243.41
2023-02-28T15:30:37.815Z,103241.53
2023-02-28T15:32:40.962Z,103232.47
2023-02-28T15:34:44.987Z,103236.72
2023-02-28T15:36:46.738Z,103226.06
2023-02-28T15:38:53.122Z,103235.63
2023-02-28T15:40:57.109Z,103226.56
2023-02-28T15:42:59.909Z,103229.00
2023-02-28T15:45:01.399Z,103227.22
2023-02-28T15:47:18.915Z,103229.03
2023-02-28T15:49:22.492Z,103232.53
2023-02-28T15:51:39.438Z,103229.88
2023-02-28T15:53:46.669Z,103236.88
2023-02-28T15:55:55.784Z,103235.97
2023-02-28T15:58:01.306Z,103228.88
2023-02-28T16:00:06.639Z,103222.53
2023-02-28T16:02:21.639Z,103224.22
2023-02-28T16:04:24.884Z,103223.22
2023-02-28T16:06:32.414Z,103230.13
2023-02-28T16:08:33.872Z,103228.88
2023-02-28T16:10:35.342Z,103223.31
2023-02-28T16:12:39.119Z,103231.00
2023-02-28T16:14:41.330Z,103221.94
2023-02-28T16:16:49.511Z,103223.28
2023-02-28T16:18:51.560Z,103219.28
2023-02-28T16:20:53.026Z,103220.88
2023-02-28T16:22:55.480Z,103217.34
2023-02-28T16:24:56.985Z,103221.47
2023-02-28T16:26:58.823Z,103220.44
2023-02-28T16:29:00.465Z,103223.72
2023-02-28T16:31:05.987Z,103221.75
2023-02-28T16:33:09.354Z,103221.63
2023-02-28T16:35:11.792Z,103222.28
2023-02-28T16:37:15.467Z,103223.81
2023-02-28T16:39:17.065Z,103222.78
2023-02-28T16:41:29.525Z,103226.03
2023-02-28T16:43:31.154Z,103219.63
2023-02-28T16:45:32.775Z,103220.28
2023-02-28T16:47:34.471Z,103222.81
2023-02-28T16:49:35.914Z,103222.56
2023-02-28T16:51:37.506Z,103220.69
2023-02-28T16:53:39.166Z,103227.56
2023-02-28T16:55:41.096Z,103230.81
2023-02-28T16:57:44.332Z,103236.75
2023-02-28T16:59:45.865Z,103229.53
2023-02-28T17:01:47.432Z,103231.06
2023-02-28T17:03:50.176Z,103232.59
2023-02-28T17:05:51.730Z,103232.34
2023-02-28T17:07:53.238Z,103238.28
2023-02-28T17:09:54.674Z,103238.03
2023-02-28T17:11:57.625Z,103242.19
2023-02-28T17:13:59.113Z,103244.53
2023-02-28T17:16:00.752Z,103247.66
2023-02-28T17:18:02.614Z,103248.28
2023-02-28T17:20:04.881Z,103254.13
2023-02-28T17:22:06.357Z,103246.81
2023-02-28T17:24:08.193Z,103249.09
2023-02-28T17:26:18.526Z,103249.78
2023-02-28T17:28:22.129Z,103259.13
2023-02-28T17:30:28.088Z,103257.97
2023-02-28T17:32:29.602Z,103255.06
2023-02-28T17:34:31.200Z,103263.56
2023-02-28T17:36:34.606Z,103258.03
2023-02-28T17:38:36.294Z,103264.63
2023-02-28T17:40:37.855Z,103260.03
2023-02-28T17:42:39.431Z,103263.25
2023-02-28T17:44:40.968Z,103260.34
2023-02-28T17:46:43.297Z,103267.94
2023-02-28T17:48:45.145Z,103270.28
2023-02-28T17:50:46.960Z,103266.63
2023-02-28T17:52:48.909Z,103264.56
2023-02-28T17:54:50.400Z,103261.72
2023-02-28T17:56:51.883Z,103262.31
2023-02-28T17:58:56.061Z,103267.31
2023-02-28T18:00:57.778Z,103266.16
2023-02-28T18:02:59.309Z,103269.38
2023-02-28T18:05:00.973Z,103267.38
2023-02-28T18:07:02.692Z,103273.16
2023-02-28T18:09:04.170Z,103276.38
2023-02-28T18:11:05.665Z,103273.53
2023-02-28T18:13:07.137Z,103277.63
2023-02-28T18:15:09.104Z,103273.06
2023-02-28T18:17:13.252Z,103275.38
2023-02-28T18:19:17.002Z,103276.72
2023-02-28T18:21:18.446Z,103265.19
2023-02-28T18:23:21.544Z,103271.06
2023-02-28T18:25:23.405Z,103269.84
2023-02-28T18:27:24.901Z,103270.50
2023-02-28T18:29:28.565Z,103263.31
2023-02-28T18:31:32.435Z,103268.28
2023-02-28T18:33:34.331Z,103270.66
2023-02-28T18:35:36.131Z,103265.13
2023-02-28T18:37:38.394Z,103271.81
2023-02-28T18:39:40.541Z,103265.47
2023-02-28T18:41:42.172Z,103266.09
2023-02-28T18:43:44.413Z,103265.00
2023-02-28T18:45:45.939Z,103268.25
2023-02-28T18:47:47.424Z,103270.53
2023-02-28T18:49:48.895Z,103257.31
2023-02-28T18:51:50.340Z,103261.47
2023-02-28T18:53:52.424Z,103265.56
2023-02-28T18:55:53.922Z,103258.44
2023-02-28T18:57:55.414Z,103260.09
2023-02-28T18:59:56.965Z,103259.84
2023-02-28T19:01:58.652Z,103262.25
2023-02-28T19:04:01.785Z,103248.94
2023-02-28T19:06:03.619Z,103253.13
2023-02-28T19:08:05.127Z,103259.91
2023-02-28T19:10:07.354Z,103261.53
2023-02-28T19:12:10.345Z,103256.09
2023-02-28T19:14:11.818Z,103253.38
2023-02-28T19:16:15.992Z,103261.03
2023-02-28T19:18:17.550Z,103255.56
2023-02-28T19:20:19.779Z,103248.38
2023-02-28T19:22:21.581Z,103248.09
2023-02-28T19:24:23.134Z,103259.13
2023-02-28T19:26:26.227Z,103267.53
2023-02-28T19:28:33.441Z,103257.69
2023-02-28T19:30:35.048Z,103265.28
2023-02-28T19:32:37.043Z,103258.16
2023-02-28T19:34:38.791Z,103257.13
2023-02-28T19:36:40.337Z,103260.41
2023-02-28T19:38:42.559Z,103262.78
2023-02-28T19:40:44.486Z,103265.19
2023-02-28T19:42:45.974Z,103271.94
2023-02-28T19:44:47.438Z,103267.41
2023-02-28T19:46:48.881Z,103263.69
2023-02-28T19:48:53.808Z,103276.53
2023-02-28T19:51:01.295Z,103274.53
2023-02-28T19:53:02.890Z,103285.53
2023-02-28T19:55:04.820Z,103287.09
2023-02-28T19:57:06.365Z,103289.53
2023-02-28T19:59:16.796Z,103288.41
2023-02-28T20:01:23.208Z,103291.69
2023-02-28T20:03:24.761Z,103290.56
2023-02-28T20:05:26.331Z,103288.63
2023-02-28T20:07:27.895Z,103287.66
2023-02-28T20:09:32.829Z,103291.69
2023-02-28T20:11:34.277Z,103290.56
2023-02-28T20:13:36.142Z,103296.50
2023-02-28T20:15:37.827Z,103292.94
2023-02-28T20:17:41.877Z,103298.88
2023-02-28T20:19:43.528Z,103300.44
2023-02-28T20:21:45.520Z,103301.09
2023-02-28T20:23:48.684Z,103300.13
2023-02-28T20:25:51.627Z,103294.69
2023-02-28T20:27:53.113Z,103288.38
2023-02-28T20:29:54.611Z,103292.50
2023-02-28T20:31:58.236Z,103285.44
2023-02-28T20:33:59.838Z,103288.59
2023-02-28T20:36:02.340Z,103288.34
2023-02-28T20:38:03.834Z,103290.78
2023-02-28T20:40:06.524Z,103291.34
2023-02-28T20:42:07.973Z,103291.19
2023-02-28T20:44:13.128Z,103292.81
2023-02-28T20:46:14.707Z,103299.56
2023-02-28T20:48:16.213Z,103295.91
2023-02-28T20:50:17.878Z,103292.34
2023-02-28T20:52:19.514Z,103294.69
2023-02-28T20:54:21.620Z,103298.91
2023-02-28T20:56:25.998Z,103294.44
2023-02-28T20:58:31.120Z,103297.78
2023-02-28T21:00:32.598Z,103299.31
2023-02-28T21:02:34.089Z,103301.78
2023-02-28T21:04:35.640Z,103300.66
2023-02-28T21:06:41.953Z,103309.09
2023-02-28T21:08:44.013Z,103309.81
2023-02-28T21:10:45.469Z,103308.75
2023-02-28T21:12:50.426Z,103312.06
2023-02-28T21:14:51.868Z,103305.81
2023-02-28T21:16:53.393Z,103302.16
2023-02-28T21:18:55.849Z,103308.88
2023-02-28T21:21:11.863Z,103302.72
2023-02-28T21:23:13.306Z,103302.47
2023-02-28T21:25:15.212Z,103305.78
2023-02-28T21:27:16.905Z,103303.09
2023-02-28T21:29:18.369Z,103302.94
2023-02-28T21:31:21.512Z,103306.22
2023-02-28T21:33:22.946Z,103306.94
2023-02-28T21:35:24.533Z,103312.84
2023-02-28T21:37:26.093Z,103304.00
2023-02-28T21:39:30.068Z,103305.34
2023-02-28T21:41:31.641Z,103298.94
2023-02-28T21:43:33.199Z,103303.22
2023-02-28T21:45:34.735Z,103304.03
2023-02-28T21:47:36.281Z,103299.66
2023-02-28T21:49:39.133Z,103308.16
2023-02-28T21:51:42.656Z,103306.38
2023-02-28T21:53:44.473Z,103314.88
2023-02-28T21:55:45.942Z,103310.41
2023-02-28T21:57:47.390Z,103310.13
2023-02-28T21:59:48.909Z,103317.63
2023-02-28T22:01:55.274Z,103314.03
2023-02-28T22:03:58.759Z,103321.63
2023-02-28T22:06:00.341Z,103320.75
2023-02-28T22:08:01.807Z,103318.78
2023-02-28T22:10:03.844Z,103321.28
2023-02-28T22:12:08.381Z,103321.19
2023-02-28T22:14:12.463Z,103324.50
2023-02-28T22:16:19.479Z,103318.34
2023-02-28T22:18:20.928Z,103320.75
2023-02-28T22:20:22.377Z,103320.66
2023-02-28T22:22:23.846Z,103320.47
2023-02-28T22:24:25.322Z,103319.50
2023-02-28T22:26:26.836Z,103316.72
2023-02-28T22:28:30.150Z,103325.31
2023-02-28T22:30:31.728Z,103323.34
2023-02-28T22:32:33.184Z,103322.34
2023-02-28T22:34:35.286Z,103313.59
2023-02-28T22:36:37.298Z,103323.16
2023-02-28T22:38:39.262Z,103319.56
2023-02-28T22:40:41.011Z,103326.25
2023-02-28T22:42:42.729Z,103320.97
2023-02-28T22:44:46.776Z,103317.38
2023-02-28T22:46:52.476Z,103315.59
2023-02-28T22:48:54.525Z,103309.53
2023-02-28T22:51:15.058Z,103312.91
2023-02-28T22:53:16.651Z,103308.44
2023-02-28T22:55:18.227Z,103306.66
2023-02-28T22:57:20.379Z,103300.50
2023-02-28T22:59:21.948Z,103295.03
2023-02-28T23:01:26.732Z,103294.06
2023-02-28T23:03:28.822Z,103302.44
2023-02-28T23:05:32.631Z,103290.19
2023-02-28T23:07:34.281Z,103295.19
2023-02-28T23:09:35.925Z,103294.22
2023-02-28T23:11:43.750Z,103300.19
2023-02-28T23:13:58.151Z,103301.72
2023-02-28T23:15:59.712Z,103305.09
2023-02-28T23:18:01.254Z,103310.19
2023-02-28T23:20:02.985Z,103309.19
2023-02-28T23:22:05.697Z,103319.34
2023-02-28T23:24:10.587Z,103316.47
2023-02-28T23:26:12.255Z,103318.06
2023-02-28T23:28:13.737Z,103318.88
2023-02-28T23:30:15.633Z,103316.09
2023-02-28T23:32:17.299Z,103322.06
2023-02-28T23:34:26.333Z,103322.88
2023-02-28T23:36:29.474Z,103331.34
2023-02-28T23:38:31.131Z,103322.59
2023-02-28T23:40:32.689Z,103324.19
2023-02-28T23:42:37.985Z,103318.91
2023-02-28T23:44:39.587Z,103324.88
2023-02-28T23:46:41.104Z,103328.28
2023-02-28T23:48:42.952Z,103328.19
2023-02-28T23:50:44.484Z,103326.38
2023-02-28T23:52:46.055Z,103334.84
2023-02-28T23:54:47.573Z,103330.47